Time;durP1;ratioP1;P1;durP2;ratioP2;P2;SDS_P1;SDS_P2;PMS_P1;PMS_P2;Temp;Humidity;BMP_temperature;BMP_pressure;BME280_temperature;BME280_humidity;BME280_pressure;Samples;Min_cycle;Max_cycle;Signal;HPM_P1;HPM_P2
2023/06/10 00:01:20;;;;;;;10.50;9.50;;;;;;;;;;5136124;27;20047;-60
2023/06/10 00:03:47;;;;;;;11.18;10.07;;;;;;;;;;5136534;27;20047;-59
2023/06/10 00:06:13;;;;;;;10.43;9.43;;;;;;;;;;5136151;27;20051;-59
2023/06/10 00:08:41;;;;;;;11.93;9.23;;;;;;;;;;5136333;27;20402;-59
2023/06/10 00:11:08;;;;;;;10.30;9.13;;;;;;;;;;5136245;27;20051;-60
2023/06/10 00:13:35;;;;;;;10.50;9.40;;;;;;;;;;5135683;27;20054;-59
2023/06/10 00:16:04;;;;;;;10.32;9.32;;;;;;;;;;5136174;27;20373;-60
2023/06/10 00:18:32;;;;;;;;;;;;;;;;;;5135697;27;20055;-59
2023/06/10 00:21:04;;;;;;;11.05;10.05;;;;;;;;;;5135800;27;19927;-59
2023/06/10 00:23:37;;;;;;;11.55;10.55;;;;;;;;;;5133255;27;20492;-59
2023/06/10 00:26:04;;;;;;;11.15;10.02;;;;;;;;;;5121145;27;20409;-59
2023/06/10 00:28:33;;;;;;;10.05;9.15;;;;;;;;;;5115249;28;20400;-60
2023/06/10 00:31:00;;;;;;;;;;;;;;;;;;5115882;28;20490;-54
2023/06/10 00:33:27;;;;;;;10.32;9.43;;;;;;;;;;5115257;28;19919;-49
2023/06/10 00:35:54;;;;;;;10.85;9.88;;;;;;;;;;5115266;28;20055;-52
2023/06/10 00:38:23;;;;;;;10.82;9.30;;;;;;;;;;5115237;28;20078;-52
2023/06/10 00:40:50;;;;;;;10.00;9.00;;;;;;;;;;5115078;28;20063;-50
2023/06/10 00:43:17;;;;;;;10.95;9.85;;;;;;;;;;5114920;28;20052;-52
2023/06/10 00:45:44;;;;;;;10.30;9.30;;;;;;;;;;5114751;28;20056;-50
2023/06/10 00:48:11;;;;;;;11.68;10.25;;;;;;;;;;5114626;28;20434;-48
2023/06/10 00:50:39;;;;;;;10.85;9.75;;;;;;;;;;5114881;28;20074;-49
2023/06/10 00:53:06;;;;;;;10.93;10.02;;;;;;;;;;5115076;28;20062;-49
2023/06/10 00:55:35;;;;;;;10.73;9.68;;;;;;;;;;5114301;28;20048;-52
2023/06/10 00:58:02;;;;;;;10.95;9.40;;;;;;;;;;5114678;28;20051;-52
2023/06/10 01:00:29;;;;;;;11.50;10.50;;;;;;;;;;5114761;28;20444;-51
2023/06/10 01:02:56;;;;;;;11.70;10.60;;;;;;;;;;5133671;27;20051;-49
2023/06/10 01:05:23;;;;;;;10.55;9.45;;;;;;;;;;5135243;27;20047;-50
2023/06/10 01:07:54;;;;;;;12.15;11.15;;;;;;;;;;5135277;27;20050;-50
2023/06/10 01:10:25;;;;;;;12.57;11.38;;;;;;;;;;5135237;27;20055;-49
2023/06/10 01:12:56;;;;;;;12.23;11.23;;;;;;;;;;5135438;27;20051;-49
2023/06/10 01:15:26;;;;;;;13.48;11.93;;;;;;;;;;5134713;27;20043;-54
2023/06/10 01:17:57;;;;;;;12.25;10.25;;;;;;;;;;5135534;27;20058;-49
2023/06/10 01:20:24;;;;;;;10.52;9.63;;;;;;;;;;5133652;27;20047;-48
2023/06/10 01:22:54;;;;;;;11.73;10.57;;;;;;;;;;5135020;27;20062;-49
2023/06/10 01:25:27;;;;;;;11.85;10.77;;;;;;;;;;5134555;27;20051;-50
2023/06/10 01:27:55;;;;;;;11.85;10.65;;;;;;;;;;5134937;27;20074;-51
2023/06/10 01:30:29;;;;;;;10.98;9.98;;;;;;;;;;5134220;27;20055;-59
2023/06/10 01:32:56;;;;;;;13.50;12.05;;;;;;;;;;5134539;27;20058;-59
2023/06/10 01:35:25;;;;;;;12.27;11.10;;;;;;;;;;5134663;27;20052;-59
2023/06/10 01:37:55;;;;;;;11.57;10.48;;;;;;;;;;5135015;27;20055;-59
2023/06/10 01:40:21;;;;;;;;;;;;;;;;;;5134627;27;20058;-59
2023/06/10 01:42:48;;;;;;;11.65;10.43;;;;;;;;;;5134797;27;19919;-59
2023/06/10 01:45:15;;;;;;;11.75;10.63;;;;;;;;;;5134520;27;20043;-59
2023/06/10 01:47:49;;;;;;;11.75;10.75;;;;;;;;;;5134477;27;20065;-59
2023/06/10 01:50:16;;;;;;;12.43;11.23;;;;;;;;;;5133928;27;20058;-59
2023/06/10 01:52:43;;;;;;;12.68;11.40;;;;;;;;;;5134428;27;20051;-59
2023/06/10 01:55:11;;;;;;;13.00;11.80;;;;;;;;;;5134071;27;20055;-59
2023/06/10 01:57:38;;;;;;;12.40;11.18;;;;;;;;;;5133703;27;20062;-59
2023/06/10 02:00:05;;;;;;;11.52;10.40;;;;;;;;;;5134236;27;20055;-59
2023/06/10 02:02:32;;;;;;;13.68;12.25;;;;;;;;;;5134068;27;20054;-59
2023/06/10 02:05:00;;;;;;;12.00;10.85;;;;;;;;;;5134384;27;20042;-59
2023/06/10 02:07:26;;;;;;;10.95;9.95;;;;;;;;;;5133961;27;20055;-59
2023/06/10 02:09:53;;;;;;;11.55;10.50;;;;;;;;;;5133734;27;20051;-59
2023/06/10 02:12:21;;;;;;;11.63;10.50;;;;;;;;;;5133507;27;20411;-59
2023/06/10 02:14:48;;;;;;;14.35;12.95;;;;;;;;;;5133990;27;20070;-59
2023/06/10 02:17:15;;;;;;;13.93;12.63;;;;;;;;;;5133965;27;20475;-59
2023/06/10 02:19:42;;;;;;;13.02;11.82;;;;;;;;;;5133909;27;20502;-59
2023/06/10 02:22:11;;;;;;;15.13;13.63;;;;;;;;;;5133842;27;20051;-59
2023/06/10 02:24:38;;;;;;;11.83;10.77;;;;;;;;;;5133427;27;20426;-59
2023/06/10 02:27:07;;;;;;;13.63;12.30;;;;;;;;;;5133973;27;20058;-59
2023/06/10 02:29:36;;;;;;;14.32;11.40;;;;;;;;;;5133627;27;20047;-59
2023/06/10 02:32:03;;;;;;;12.25;11.15;;;;;;;;;;5133465;27;20403;-58
2023/06/10 02:34:30;;;;;;;13.32;12.02;;;;;;;;;;5133913;27;20054;-58
2023/06/10 02:36:57;;;;;;;14.77;13.35;;;;;;;;;;5133761;27;20063;-58
2023/06/10 02:39:23;;;;;;;13.80;12.50;;;;;;;;;;5133378;27;20132;-59
2023/06/10 02:41:51;;;;;;;13.90;12.50;;;;;;;;;;5132523;27;20082;-59
2023/06/10 02:44:18;;;;;;;12.63;11.32;;;;;;;;;;5133593;28;20058;-59
2023/06/10 02:46:47;;;;;;;13.18;11.95;;;;;;;;;;5133623;28;20051;-59
2023/06/10 02:49:14;;;;;;;13.48;11.07;;;;;;;;;;5133525;28;20051;-59
2023/06/10 02:51:41;;;;;;;12.60;11.43;;;;;;;;;;5133730;28;20047;-58
2023/06/10 02:54:07;;;;;;;12.57;11.48;;;;;;;;;;5133084;28;20051;-59
2023/06/10 02:56:34;;;;;;;12.48;11.18;;;;;;;;;;5132980;28;20055;-59
2023/06/10 02:59:01;;;;;;;13.10;12.00;;;;;;;;;;5133662;28;20353;-59
2023/06/10 03:01:31;;;;;;;12.57;11.48;;;;;;;;;;5133474;28;20472;-59
2023/06/10 03:04:00;;;;;;;13.38;11.98;;;;;;;;;;5133378;28;20055;-59
2023/06/10 03:06:26;;;;;;;14.32;12.82;;;;;;;;;;5133592;28;20483;-59
2023/06/10 03:08:53;;;;;;;13.05;11.40;;;;;;;;;;5133282;28;20075;-59
2023/06/10 03:11:20;;;;;;;12.98;11.68;;;;;;;;;;5133343;28;20059;-59
2023/06/10 03:13:47;;;;;;;15.50;14.00;;;;;;;;;;5133326;28;20061;-59
2023/06/10 03:16:14;;;;;;;14.27;12.98;;;;;;;;;;5132952;28;20050;-59
2023/06/10 03:18:41;;;;;;;15.77;14.25;;;;;;;;;;5132812;28;20056;-59
2023/06/10 03:21:09;;;;;;;14.40;13.10;;;;;;;;;;5133028;28;20051;-59
2023/06/10 03:23:36;;;;;;;13.80;12.13;;;;;;;;;;5132908;28;20051;-59
2023/06/10 03:26:04;;;;;;;14.70;13.30;;;;;;;;;;5132867;28;20070;-59
2023/06/10 03:28:31;;;;;;;13.77;12.45;;;;;;;;;;5133208;28;20051;-59
2023/06/10 03:30:58;;;;;;;16.52;14.90;;;;;;;;;;5133218;28;20472;-58
2023/06/10 03:33:26;;;;;;;14.50;13.20;;;;;;;;;;5133165;28;20058;-59
2023/06/10 03:35:54;;;;;;;14.60;13.30;;;;;;;;;;5132897;28;20392;-59
2023/06/10 03:38:22;;;;;;;15.30;13.80;;;;;;;;;;5132962;28;20058;-59
2023/06/10 03:40:49;;;;;;;15.23;12.95;;;;;;;;;;5132644;28;20063;-58
2023/06/10 03:43:16;;;;;;;14.25;12.68;;;;;;;;;;5132505;28;20055;-60
2023/06/10 03:45:43;;;;;;;14.18;12.82;;;;;;;;;;5132767;28;20058;-59
2023/06/10 03:48:10;;;;;;;14.60;13.23;;;;;;;;;;5132516;28;20070;-60
2023/06/10 03:50:37;;;;;;;16.23;14.68;;;;;;;;;;5132725;28;20058;-59
2023/06/10 03:53:04;;;;;;;14.68;13.32;;;;;;;;;;5135550;27;20047;-60
2023/06/10 03:55:32;;;;;;;15.85;14.32;;;;;;;;;;5136361;27;20051;-58
2023/06/10 03:57:59;;;;;;;13.63;12.23;;;;;;;;;;5136072;27;20415;-60
2023/06/10 04:00:26;;;;;;;14.57;13.27;;;;;;;;;;5136538;27;20051;-60
2023/06/10 04:02:53;;;;;;;14.55;13.15;;;;;;;;;;5136308;27;20054;-59
2023/06/10 04:05:21;;;;;;;16.08;14.48;;;;;;;;;;5136484;27;20054;-60
2023/06/10 04:07:48;;;;;;;14.52;13.23;;;;;;;;;;5136712;27;20048;-59
2023/06/10 04:10:15;;;;;;;14.65;13.43;;;;;;;;;;5136333;27;20357;-60
2023/06/10 04:12:44;;;;;;;14.07;12.57;;;;;;;;;;5136465;27;20047;-60
2023/06/10 04:15:11;;;;;;;14.23;12.90;;;;;;;;;;5135792;27;20051;-60
2023/06/10 04:17:38;;;;;;;14.52;13.23;;;;;;;;;;5136117;27;20051;-60
2023/06/10 04:20:09;;;;;;;14.57;13.18;;;;;;;;;;5135797;27;20050;-60
2023/06/10 04:22:36;;;;;;;15.23;13.73;;;;;;;;;;5136502;27;20472;-60
2023/06/10 04:25:03;;;;;;;14.55;13.25;;;;;;;;;;5136239;27;20051;-60
2023/06/10 04:27:30;;;;;;;15.20;13.70;;;;;;;;;;5136178;27;20368;-60
2023/06/10 04:29:58;;;;;;;14.68;13.13;;;;;;;;;;5136154;27;20051;-60
2023/06/10 04:32:28;;;;;;;14.20;12.90;;;;;;;;;;5136019;27;20055;-52
2023/06/10 04:34:54;;;;;;;15.55;14.15;;;;;;;;;;5135864;27;20054;-50
2023/06/10 04:37:22;;;;;;;15.38;13.98;;;;;;;;;;5136010;27;20051;-50
2023/06/10 04:39:48;;;;;;;14.10;12.75;;;;;;;;;;5135870;27;20342;-60
2023/06/10 04:42:15;;;;;;;14.05;12.75;;;;;;;;;;5135914;27;20051;-60
2023/06/10 04:44:44;;;;;;;14.90;13.50;;;;;;;;;;5135738;27;20066;-53
2023/06/10 04:47:12;;;;;;;14.27;12.75;;;;;;;;;;5135731;27;20463;-50
2023/06/10 04:49:39;;;;;;;14.02;12.63;;;;;;;;;;5135347;27;20047;-51
2023/06/10 04:52:06;;;;;;;13.18;12.05;;;;;;;;;;5135340;27;20051;-50
2023/06/10 04:54:33;;;;;;;13.90;12.68;;;;;;;;;;5135177;27;20491;-48
2023/06/10 04:57:00;;;;;;;12.77;11.57;;;;;;;;;;5134969;27;20047;-60
2023/06/10 04:59:27;;;;;;;13.68;12.48;;;;;;;;;;5137238;27;20388;-59
2023/06/10 05:01:54;;;;;;;14.77;13.38;;;;;;;;;;5135245;27;20058;-59
2023/06/10 05:04:22;;;;;;;14.25;13.00;;;;;;;;;;5133555;27;20051;-59
2023/06/10 05:06:49;;;;;;;14.38;12.93;;;;;;;;;;5135042;27;20054;-59
2023/06/10 05:09:16;;;;;;;14.52;13.05;;;;;;;;;;5135470;27;20476;-48
2023/06/10 05:11:44;;;;;;;15.30;13.80;;;;;;;;;;5134852;27;20054;-48
2023/06/10 05:14:11;;;;;;;15.35;13.02;;;;;;;;;;5134765;27;20046;-51
2023/06/10 05:16:38;;;;;;;14.77;13.52;;;;;;;;;;5134563;27;20047;-59
2023/06/10 05:19:05;;;;;;;15.32;14.02;;;;;;;;;;5134973;27;20046;-59
2023/06/10 05:21:33;;;;;;;12.98;11.77;;;;;;;;;;5134618;27;20054;-58
2023/06/10 05:24:00;;;;;;;14.38;13.18;;;;;;;;;;5134447;27;20073;-60
2023/06/10 05:26:28;;;;;;;13.00;11.80;;;;;;;;;;5134410;27;20047;-59
2023/06/10 05:28:56;;;;;;;11.80;10.70;;;;;;;;;;5134656;27;20055;-59
2023/06/10 05:31:25;;;;;;;12.07;11.07;;;;;;;;;;5134662;27;20372;-59
2023/06/10 05:33:52;;;;;;;;;;;;;;;;;;5135134;27;20051;-59
2023/06/10 05:36:19;;;;;;;12.48;11.02;;;;;;;;;;5134394;27;19920;-59
2023/06/10 05:38:49;;;;;;;12.95;11.65;;;;;;;;;;5134423;27;20051;-59
2023/06/10 05:41:16;;;;;;;12.02;10.75;;;;;;;;;;5133993;27;20051;-59
2023/06/10 05:43:43;;;;;;;12.32;9.90;;;;;;;;;;5134386;27;20058;-59
2023/06/10 05:46:13;;;;;;;11.52;10.07;;;;;;;;;;5134226;27;20058;-59
2023/06/10 05:48:39;;;;;;;11.65;10.00;;;;;;;;;;5133945;27;20058;-60
2023/06/10 05:51:06;;;;;;;10.32;9.35;;;;;;;;;;5133990;27;20501;-59
2023/06/10 05:53:33;;;;;;;11.57;10.43;;;;;;;;;;5134214;27;20055;-60
2023/06/10 05:56:01;;;;;;;10.57;9.50;;;;;;;;;;5133259;27;20047;-59
2023/06/10 05:58:28;;;;;;;11.02;9.82;;;;;;;;;;5134217;27;20054;-60
2023/06/10 06:00:55;;;;;;;11.40;10.20;;;;;;;;;;5133847;27;20051;-60
2023/06/10 06:03:22;;;;;;;11.05;10.05;;;;;;;;;;5133622;27;20054;-60
2023/06/10 06:05:48;;;;;;;10.38;8.98;;;;;;;;;;5133924;27;20476;-60
2023/06/10 06:08:18;;;;;;;11.15;10.15;;;;;;;;;;5134138;27;20055;-60
2023/06/10 06:10:44;;;;;;;;;;;;;;;;;;5134495;27;20054;-59
2023/06/10 06:13:12;;;;;;;11.18;10.07;;;;;;;;;;5133487;27;19942;-60
2023/06/10 06:15:39;;;;;;;10.68;9.38;;;;;;;;;;5133636;27;20062;-60
2023/06/10 06:18:06;;;;;;;10.55;9.55;;;;;;;;;;5133821;27;20058;-60
2023/06/10 06:20:33;;;;;;;10.32;9.25;;;;;;;;;;5133784;27;20062;-59
2023/06/10 06:23:00;;;;;;;9.43;8.63;;;;;;;;;;5133297;27;20491;-60
2023/06/10 06:25:27;;;;;;;9.85;8.38;;;;;;;;;;5133402;27;20047;-60
2023/06/10 06:27:53;;;;;;;9.02;8.13;;;;;;;;;;5133927;27;20051;-60
2023/06/10 06:30:22;;;;;;;8.30;7.60;;;;;;;;;;5134076;27;20058;-61
2023/06/10 06:32:48;;;;;;;8.00;7.20;;;;;;;;;;5133915;27;20047;-61
2023/06/10 06:35:15;;;;;;;7.13;6.50;;;;;;;;;;5133478;27;20409;-58
2023/06/10 06:37:42;;;;;;;7.68;6.97;;;;;;;;;;5133584;27;20054;-59
2023/06/10 06:40:09;;;;;;;7.88;5.95;;;;;;;;;;5133639;27;20055;-59
2023/06/10 06:42:36;;;;;;;8.32;7.53;;;;;;;;;;5133767;27;20051;-51
2023/06/10 06:45:03;;;;;;;7.60;6.90;;;;;;;;;;5133512;28;20055;-50
2023/06/10 06:47:31;;;;;;;7.60;6.82;;;;;;;;;;5133475;28;20369;-50
2023/06/10 06:49:58;;;;;;;7.35;6.65;;;;;;;;;;5133170;28;20051;-51
2023/06/10 06:52:25;;;;;;;6.68;6.07;;;;;;;;;;5133403;28;20055;-50
2023/06/10 06:54:52;;;;;;;6.72;6.03;;;;;;;;;;5133391;28;20050;-51
2023/06/10 06:57:18;;;;;;;7.22;6.53;;;;;;;;;;5132905;28;20408;-52
2023/06/10 06:59:45;;;;;;;6.32;5.72;;;;;;;;;;5132749;28;20145;-49
2023/06/10 07:02:12;;;;;;;9.07;7.03;;;;;;;;;;5133055;28;20372;-53
2023/06/10 07:04:41;;;;;;;7.05;6.35;;;;;;;;;;5133107;28;20058;-60
2023/06/10 07:07:08;;;;;;;6.75;5.43;;;;;;;;;;5133157;28;20476;-60
2023/06/10 07:09:35;;;;;;;5.95;5.35;;;;;;;;;;5133189;28;20062;-60
2023/06/10 07:12:02;;;;;;;7.32;5.32;;;;;;;;;;5133306;28;20488;-60
2023/06/10 07:14:28;;;;;;;6.28;5.00;;;;;;;;;;5132916;28;20055;-60
2023/06/10 07:16:55;;;;;;;6.72;5.28;;;;;;;;;;5132657;28;20043;-60
2023/06/10 07:19:22;;;;;;;6.72;5.20;;;;;;;;;;5133386;28;20054;-60
2023/06/10 07:21:50;;;;;;;5.68;5.07;;;;;;;;;;5135627;28;20054;-53
2023/06/10 07:24:17;;;;;;;5.53;5.03;;;;;;;;;;5133201;28;20051;-52
2023/06/10 07:26:44;;;;;;;6.32;5.00;;;;;;;;;;5133642;27;20062;-50
2023/06/10 07:29:11;;;;;;;8.40;5.15;;;;;;;;;;5137365;27;20401;-51
2023/06/10 07:31:38;;;;;;;5.78;4.95;;;;;;;;;;5137062;27;20051;-53
2023/06/10 07:34:04;;;;;;;7.68;5.38;;;;;;;;;;5136763;27;20055;-53
2023/06/10 07:36:31;;;;;;;5.53;4.50;;;;;;;;;;5136581;27;20055;-51
2023/06/10 07:38:59;;;;;;;6.18;4.68;;;;;;;;;;5136970;27;20514;-52
2023/06/10 07:41:26;;;;;;;7.80;5.25;;;;;;;;;;5136946;27;20058;-50
2023/06/10 07:43:54;;;;;;;7.15;4.72;;;;;;;;;;5137039;27;20058;-52
2023/06/10 07:46:22;;;;;;;5.68;4.82;;;;;;;;;;5136877;27;20165;-53
2023/06/10 07:48:49;;;;;;;6.05;4.40;;;;;;;;;;5136770;27;20043;-51
2023/06/10 07:51:16;;;;;;;6.90;5.20;;;;;;;;;;5136832;27;20483;-53
2023/06/10 07:53:43;;;;;;;7.50;5.30;;;;;;;;;;5136724;27;20063;-51
2023/06/10 07:56:11;;;;;;;5.72;4.90;;;;;;;;;;5136256;27;20047;-52
2023/06/10 07:58:38;;;;;;;5.05;4.10;;;;;;;;;;5136753;27;20475;-53
2023/06/10 08:01:05;;;;;;;6.18;4.75;;;;;;;;;;5136056;27;20372;-52
2023/06/10 08:03:32;;;;;;;6.07;4.93;;;;;;;;;;5136536;27;20399;-54
2023/06/10 08:05:58;;;;;;;7.65;4.53;;;;;;;;;;5136099;27;20054;-53
2023/06/10 08:08:25;;;;;;;4.47;4.07;;;;;;;;;;5135991;27;20047;-51
2023/06/10 08:10:52;;;;;;;5.50;4.60;;;;;;;;;;5136178;27;20073;-50
2023/06/10 08:13:20;;;;;;;7.63;4.35;;;;;;;;;;5135990;27;20051;-52
2023/06/10 08:15:50;;;;;;;4.85;4.15;;;;;;;;;;5136206;27;20051;-49
2023/06/10 08:18:17;;;;;;;5.07;4.43;;;;;;;;;;5136061;27;20047;-50
2023/06/10 08:20:44;;;;;;;7.22;4.93;;;;;;;;;;5135607;27;20058;-50
2023/06/10 08:23:10;;;;;;;5.07;4.28;;;;;;;;;;5136155;27;20054;-54
2023/06/10 08:25:37;;;;;;;5.00;4.10;;;;;;;;;;5135628;27;20055;-52
2023/06/10 08:28:04;;;;;;;4.72;4.32;;;;;;;;;;5135905;27;20059;-60
2023/06/10 08:30:32;;;;;;;5.47;4.13;;;;;;;;;;5135959;27;20055;-57
2023/06/10 08:33:03;;;;;;;5.90;4.25;;;;;;;;;;5135857;27;20050;-60
2023/06/10 08:35:30;;;;;;;5.50;4.15;;;;;;;;;;5135548;27;20415;-61
2023/06/10 08:37:57;;;;;;;4.72;3.88;;;;;;;;;;5135907;27;20047;-60
2023/06/10 08:40:24;;;;;;;5.43;4.28;;;;;;;;;;5135948;27;20062;-60
2023/06/10 08:42:54;;;;;;;6.80;4.03;;;;;;;;;;5135350;27;20043;-60
2023/06/10 08:45:23;;;;;;;4.75;4.30;;;;;;;;;;5135674;27;20058;-60
2023/06/10 08:47:52;;;;;;;4.65;3.95;;;;;;;;;;5135833;27;20047;-60
2023/06/10 08:50:19;;;;;;;7.35;4.07;;;;;;;;;;5135298;27;20062;-60
2023/06/10 08:52:48;;;;;;;4.15;3.75;;;;;;;;;;5135743;27;20401;-60
2023/06/10 08:55:17;;;;;;;4.20;3.80;;;;;;;;;;5135762;27;20051;-60
2023/06/10 08:57:45;;;;;;;5.63;4.15;;;;;;;;;;5134857;27;20057;-60
2023/06/10 09:00:12;;;;;;;4.32;3.92;;;;;;;;;;5135218;27;20051;-60
2023/06/10 09:02:40;;;;;;;4.40;3.75;;;;;;;;;;5135287;27;20062;-60
2023/06/10 09:05:08;;;;;;;6.90;4.20;;;;;;;;;;5135016;27;20051;-60
2023/06/10 09:07:38;;;;;;;4.22;3.70;;;;;;;;;;5135326;27;20838;-60
2023/06/10 09:10:07;;;;;;;6.18;4.35;;;;;;;;;;5134984;27;20411;-60
2023/06/10 09:12:34;;;;;;;4.78;3.85;;;;;;;;;;5134971;27;20054;-59
2023/06/10 09:15:02;;;;;;;6.43;4.25;;;;;;;;;;5134821;27;20051;-60
2023/06/10 09:17:29;;;;;;;8.73;4.13;;;;;;;;;;5134916;27;20047;-60
2023/06/10 09:19:56;;;;;;;5.78;4.47;;;;;;;;;;5134584;27;20510;-60
2023/06/10 09:22:23;;;;;;;;;;;;;;;;;;5118514;27;20055;-60
2023/06/10 09:24:51;;;;;;;5.40;4.40;;;;;;;;;;5134953;27;19920;-60
2023/06/10 09:27:18;;;;;;;5.13;4.07;;;;;;;;;;5134767;27;20491;-60
2023/06/10 09:29:48;;;;;;;4.70;4.13;;;;;;;;;;5134568;27;20055;-60
2023/06/10 09:32:19;;;;;;;4.32;3.72;;;;;;;;;;5134903;27;20058;-60
2023/06/10 09:34:46;;;;;;;5.68;4.18;;;;;;;;;;5134807;27;20055;-60
2023/06/10 09:37:13;;;;;;;5.72;3.60;;;;;;;;;;5135088;27;20395;-60
2023/06/10 09:39:40;;;;;;;5.72;3.80;;;;;;;;;;5134620;27;20058;-60
2023/06/10 09:42:18;;;;;;;5.72;3.55;;;;;;;;;;5134202;27;20047;-60
2023/06/10 09:44:50;;;;;;;6.10;3.80;;;;;;;;;;5134850;27;20407;-61
2023/06/10 09:47:20;;;;;;;4.00;3.60;;;;;;;;;;5133457;27;20467;-60
2023/06/10 09:49:47;;;;;;;6.00;3.72;;;;;;;;;;5134038;27;20054;-60
2023/06/10 09:52:14;;;;;;;6.03;4.13;;;;;;;;;;5134721;27;20055;-60
2023/06/10 09:54:41;;;;;;;4.97;3.63;;;;;;;;;;5134439;27;20051;-60
2023/06/10 09:57:08;;;;;;;4.25;3.85;;;;;;;;;;5133726;27;20047;-60
2023/06/10 09:59:38;;;;;;;4.20;3.80;;;;;;;;;;5133519;27;20051;-60
2023/06/10 10:02:05;;;;;;;4.85;4.15;;;;;;;;;;5134135;27;20046;-60
2023/06/10 10:04:32;;;;;;;19.23;4.10;;;;;;;;;;5134121;27;20051;-60
2023/06/10 10:06:59;;;;;;;5.35;4.28;;;;;;;;;;5133980;27;20395;-60
2023/06/10 10:09:26;;;;;;;6.63;4.05;;;;;;;;;;5133435;27;20055;-60
2023/06/10 10:11:52;;;;;;;4.25;3.80;;;;;;;;;;5134049;27;20051;-61
2023/06/10 10:14:20;;;;;;;4.18;3.58;;;;;;;;;;5133505;27;20050;-60
2023/06/10 10:16:49;;;;;;;4.85;3.88;;;;;;;;;;5133638;27;20054;-60
2023/06/10 10:19:19;;;;;;;5.63;4.13;;;;;;;;;;5133617;27;20047;-60
2023/06/10 10:21:51;;;;;;;6.05;3.60;;;;;;;;;;5133703;27;20062;-60
2023/06/10 10:24:22;;;;;;;5.85;3.83;;;;;;;;;;5133899;27;20047;-61
2023/06/10 10:26:53;;;;;;;7.78;3.55;;;;;;;;;;5133766;27;20400;-60
2023/06/10 10:29:23;;;;;;;5.07;3.67;;;;;;;;;;5133326;27;20051;-61
2023/06/10 10:31:55;;;;;;;4.97;3.72;;;;;;;;;;5133321;27;20412;-60
2023/06/10 10:34:25;;;;;;;3.95;3.58;;;;;;;;;;5133642;27;20121;-60
2023/06/10 10:36:51;;;;;;;4.50;3.80;;;;;;;;;;5133712;27;20055;-59
2023/06/10 10:39:19;;;;;;;4.03;3.60;;;;;;;;;;5133317;27;20058;-60
2023/06/10 10:41:46;;;;;;;4.50;4.05;;;;;;;;;;5133265;27;20055;-60
2023/06/10 10:44:12;;;;;;;;;;;;;;;;;;5133739;27;20058;-60
2023/06/10 10:46:43;;;;;;;5.10;3.40;;;;;;;;;;5133371;27;19927;-61
2023/06/10 10:49:14;;;;;;;5.88;3.60;;;;;;;;;;5133041;28;20070;-60
2023/06/10 10:51:55;;;;;;;4.15;3.75;;;;;;;;;;5133367;28;20074;-60
2023/06/10 10:54:28;;;;;;;5.40;4.00;;;;;;;;;;5133415;28;20051;-60
2023/06/10 10:57:11;;;;;;;7.32;3.88;;;;;;;;;;5133140;28;20059;-60
2023/06/10 11:00:01;;;;;;;5.78;3.92;;;;;;;;;;5132922;28;20487;-60
2023/06/10 11:02:39;;;;;;;5.03;4.03;;;;;;;;;;5129559;27;20050;-60
2023/06/10 11:05:08;;;;;;;4.28;3.60;;;;;;;;;;5137125;27;20047;-60
2023/06/10 11:07:36;;;;;;;6.07;3.97;;;;;;;;;;5137452;27;20051;-60
2023/06/10 11:10:04;;;;;;;10.32;3.90;;;;;;;;;;5137136;27;20043;-54
2023/06/10 11:12:41;;;;;;;5.32;3.85;;;;;;;;;;5137395;27;20058;-54
2023/06/10 11:15:08;;;;;;;5.45;4.57;;;;;;;;;;5137090;27;20055;-52
2023/06/10 11:17:35;;;;;;;4.75;3.72;;;;;;;;;;5137303;27;20069;-54
2023/06/10 11:20:02;;;;;;;;;;;;;;;;;;5137681;27;20047;-55
2023/06/10 11:22:30;;;;;;;6.00;3.70;;;;;;;;;;5137538;27;19926;-53
2023/06/10 11:24:59;;;;;;;5.82;4.22;;;;;;;;;;5137176;27;20077;-53
2023/06/10 11:27:26;;;;;;;5.57;3.65;;;;;;;;;;5137255;27;20046;-53
2023/06/10 11:29:56;;;;;;;5.20;4.00;;;;;;;;;;5137096;27;20062;-55
2023/06/10 11:32:23;;;;;;;7.22;4.10;;;;;;;;;;5137128;27;20062;-54
2023/06/10 11:34:52;;;;;;;5.30;4.10;;;;;;;;;;5136641;27;20055;-54
2023/06/10 11:37:19;;;;;;;4.32;3.50;;;;;;;;;;5137077;27;20051;-53
2023/06/10 11:39:46;;;;;;;;;;;;;;;;;;5137061;27;20051;-54
2023/06/10 11:42:12;;;;;;;;;;;;;;;;;;5137192;27;19919;-54
2023/06/10 11:44:39;;;;;;;;;;;;;;;;;;5137285;27;19919;-55
2023/06/10 11:47:05;;;;;;;;;;;;;;;;;;5137273;27;19926;-54
2023/06/10 11:49:33;;;;;;;4.10;3.65;;;;;;;;;;5136775;27;20377;-53
2023/06/10 11:52:00;;;;;;;5.75;3.83;;;;;;;;;;5136850;27;20406;-53
2023/06/10 11:54:27;;;;;;;4.43;3.70;;;;;;;;;;5136204;27;20066;-53
2023/06/10 11:56:58;;;;;;;4.75;4.18;;;;;;;;;;5135177;27;20057;-53
2023/06/10 11:59:27;;;;;;;4.22;3.92;;;;;;;;;;5134729;28;20047;-53
2023/06/10 12:01:54;;;;;;;4.85;4.07;;;;;;;;;;5134879;28;20062;-53
2023/06/10 12:04:21;;;;;;;4.35;3.95;;;;;;;;;;5134663;28;20051;-52
2023/06/10 12:06:50;;;;;;;3.83;3.42;;;;;;;;;;5135086;28;20051;-54
2023/06/10 12:09:18;;;;;;;4.43;3.67;;;;;;;;;;5135346;28;20043;-54
2023/06/10 12:11:46;;;;;;;3.92;3.53;;;;;;;;;;5134966;28;20077;-53
2023/06/10 12:14:13;;;;;;;5.95;3.70;;;;;;;;;;5134391;27;20058;-53
2023/06/10 12:16:40;;;;;;;4.78;3.85;;;;;;;;;;5134842;28;20051;-54
2023/06/10 12:19:06;;;;;;;;;;;;;;;;;;5135245;28;20047;-54
2023/06/10 12:21:34;;;;;;;4.80;3.70;;;;;;;;;;5134485;28;19919;-54
2023/06/10 12:24:04;;;;;;;4.20;3.80;;;;;;;;;;5134197;28;20054;-51
2023/06/10 12:26:41;;;;;;;5.60;3.83;;;;;;;;;;5134389;28;20058;-52
2023/06/10 12:29:18;;;;;;;4.30;3.95;;;;;;;;;;5134802;28;20051;-52
2023/06/10 12:31:55;;;;;;;4.18;3.75;;;;;;;;;;5134488;28;20059;-52
2023/06/10 12:34:29;;;;;;;4.47;3.72;;;;;;;;;;5134596;28;20070;-52
2023/06/10 12:36:57;;;;;;;3.85;3.55;;;;;;;;;;5134702;28;20055;-53
2023/06/10 12:39:26;;;;;;;7.03;3.67;;;;;;;;;;5134651;28;20047;-52
2023/06/10 12:41:53;;;;;;;4.53;3.90;;;;;;;;;;5134306;28;20051;-54
2023/06/10 12:44:28;;;;;;;5.15;4.32;;;;;;;;;;5134529;28;20407;-53
2023/06/10 12:46:55;;;;;;;4.40;4.00;;;;;;;;;;5134563;28;20399;-53
2023/06/10 12:49:22;;;;;;;5.18;4.03;;;;;;;;;;5134253;28;20469;-53
2023/06/10 12:51:49;;;;;;;4.15;3.80;;;;;;;;;;5134216;28;20460;-52
2023/06/10 12:54:21;;;;;;;4.97;3.85;;;;;;;;;;5133820;28;20514;-53
2023/06/10 12:56:52;;;;;;;4.13;3.72;;;;;;;;;;5089588;27;1242476;-53
2023/06/10 12:59:19;;;;;;;8.25;4.10;;;;;;;;;;5135212;27;20055;-52
2023/06/10 13:01:51;;;;;;;4.43;4.03;;;;;;;;;;5134784;27;20050;-52
2023/06/10 13:04:18;;;;;;;4.43;4.03;;;;;;;;;;5135014;27;20059;-52
2023/06/10 13:06:46;;;;;;;5.03;3.97;;;;;;;;;;5134747;27;20047;-53
2023/06/10 13:09:13;;;;;;;4.47;3.85;;;;;;;;;;5134910;27;20125;-53
2023/06/10 13:11:41;;;;;;;4.95;3.97;;;;;;;;;;5135920;27;20078;-58
2023/06/10 13:14:10;;;;;;;5.50;4.40;;;;;;;;;;5134644;27;20498;-60
2023/06/10 13:16:38;;;;;;;5.35;4.03;;;;;;;;;;5134777;27;20062;-58
2023/06/10 13:19:06;;;;;;;3.85;3.45;;;;;;;;;;5134783;27;20051;-59
2023/06/10 13:21:33;;;;;;;6.28;4.60;;;;;;;;;;5134651;27;20054;-59
2023/06/10 13:23:59;;;;;;;4.55;4.10;;;;;;;;;;5134418;27;20051;-59
2023/06/10 13:26:27;;;;;;;4.40;4.00;;;;;;;;;;5133955;27;20055;-59
2023/06/10 13:28:53;;;;;;;7.32;4.30;;;;;;;;;;5134402;27;20062;-59
2023/06/10 13:31:24;;;;;;;4.65;4.18;;;;;;;;;;5134205;27;20051;-58
2023/06/10 13:33:51;;;;;;;6.35;3.97;;;;;;;;;;5134213;27;20156;-58
2023/06/10 13:36:18;;;;;;;4.88;4.35;;;;;;;;;;5134439;27;20059;-58
2023/06/10 13:38:47;;;;;;;4.25;3.78;;;;;;;;;;5134157;27;20408;-58
2023/06/10 13:41:14;;;;;;;5.75;4.07;;;;;;;;;;5134032;27;20074;-59
2023/06/10 13:43:41;;;;;;;6.13;4.17;;;;;;;;;;5133982;27;20051;-59
2023/06/10 13:46:11;;;;;;;5.00;4.60;;;;;;;;;;5133757;27;20055;-59
2023/06/10 13:48:39;;;;;;;5.43;4.18;;;;;;;;;;5133848;27;20063;-60
2023/06/10 13:51:06;;;;;;;4.30;3.97;;;;;;;;;;5133846;27;20046;-60
2023/06/10 13:53:34;;;;;;;13.02;4.30;;;;;;;;;;5134144;27;20051;-60
2023/06/10 13:56:01;;;;;;;6.13;3.65;;;;;;;;;;5133780;27;20051;-59
2023/06/10 13:58:27;;;;;;;6.95;4.22;;;;;;;;;;5134340;27;20233;-60
2023/06/10 14:00:55;;;;;;;4.47;3.92;;;;;;;;;;5133360;27;20127;-60
2023/06/10 14:03:22;;;;;;;5.22;4.05;;;;;;;;;;5133601;27;20051;-59
2023/06/10 14:05:50;;;;;;;5.55;4.05;;;;;;;;;;5133483;27;20051;-60
2023/06/10 14:08:17;;;;;;;5.15;4.32;;;;;;;;;;5133767;27;20471;-60
2023/06/10 14:10:44;;;;;;;5.00;4.15;;;;;;;;;;5133265;27;20062;-60
2023/06/10 14:13:10;;;;;;;4.40;4.00;;;;;;;;;;5133343;27;20058;-59
2023/06/10 14:15:37;;;;;;;6.07;4.45;;;;;;;;;;5133344;27;20055;-60
2023/06/10 14:18:05;;;;;;;4.30;3.90;;;;;;;;;;5133668;27;20480;-59
2023/06/10 14:20:32;;;;;;;5.22;4.30;;;;;;;;;;5133398;27;20054;-57
2023/06/10 14:23:01;;;;;;;4.82;4.20;;;;;;;;;;5133511;27;20492;-60
2023/06/10 14:25:27;;;;;;;4.88;3.97;;;;;;;;;;5133359;27;20051;-51
2023/06/10 14:27:54;;;;;;;5.47;4.40;;;;;;;;;;5138896;27;20051;-51
2023/06/10 14:30:21;;;;;;;4.95;4.45;;;;;;;;;;5133189;27;20070;-51
2023/06/10 14:32:48;;;;;;;5.03;4.32;;;;;;;;;;5133536;27;20412;-52
2023/06/10 14:35:15;;;;;;;5.10;4.07;;;;;;;;;;5133014;27;20055;-52
2023/06/10 14:37:42;;;;;;;5.03;4.13;;;;;;;;;;5132944;27;20157;-52
2023/06/10 14:40:10;;;;;;;4.30;3.95;;;;;;;;;;5132652;27;20126;-52